Time;durP1;ratioP1;P1;durP2;ratioP2;P2;SDS_P1;SDS_P2;PMS_P1;PMS_P2;Temp;Humidity;BMP_temperature;BMP_pressure;BME280_temperature;BME280_humidity;BME280_pressure;Samples;Min_cycle;Max_cycle;Signal;HPM_P1;HPM_P2
2022/09/25 00:00:53;;;;;;;5.93;1.90;;;11.20;99.90;;;;;;6181712;23;20017;-83
2022/09/25 00:03:20;;;;;;;6.72;2.60;;;11.00;99.90;;;;;;6179550;23;20024;-82
2022/09/25 00:05:46;;;;;;;7.57;2.03;;;11.30;99.90;;;;;;6179773;23;20009;-82
2022/09/25 00:08:13;;;;;;;9.27;2.28;;;11.10;99.90;;;;;;6181896;23;20008;-82
2022/09/25 00:10:44;;;;;;;8.02;2.78;;;11.20;99.90;;;;;;6181624;23;20411;-82
2022/09/25 00:13:10;;;;;;;8.82;2.20;;;11.90;99.90;;;;;;6180054;23;20486;-82
2022/09/25 00:15:37;;;;;;;5.38;2.92;;;11.10;99.90;;;;;;6182018;23;20025;-82
2022/09/25 00:18:03;;;;;;;7.47;2.20;;;11.00;99.90;;;;;;6181440;23;20001;-82
2022/09/25 00:20:28;;;;;;;6.80;2.30;;;11.10;99.90;;;;;;6181562;23;20009;-82
2022/09/25 00:22:55;;;;;;;6.43;2.95;;;10.90;99.90;;;;;;6179759;23;20032;-82
2022/09/25 00:25:20;;;;;;;6.35;2.78;;;10.90;99.90;;;;;;6181545;23;20008;-82
2022/09/25 00:27:49;;;;;;;7.90;2.55;;;10.90;99.90;;;;;;6179629;23;20005;-82
2022/09/25 00:30:15;;;;;;;4.22;2.33;;;;;;;;;;6181897;23;20020;-82
2022/09/25 00:32:40;;;;;;;7.28;2.40;;;10.80;99.90;;;;;;6181305;23;20028;-82
2022/09/25 00:35:07;;;;;;;6.07;2.75;;;10.80;99.90;;;;;;6181950;23;20052;-82
2022/09/25 00:37:33;;;;;;;7.93;3.05;;;10.80;99.90;;;;;;6181726;23;20037;-81
2022/09/25 00:39:59;;;;;;;7.38;2.17;;;10.70;99.90;;;;;;6181404;23;20005;-82
2022/09/25 00:42:25;;;;;;;6.63;2.35;;;10.60;99.90;;;;;;6182148;23;20001;-81
2022/09/25 00:44:55;;;;;;;5.32;2.17;;;10.70;99.90;;;;;;6180859;23;20029;-82
2022/09/25 00:47:48;;;;;;;10.73;2.63;;;10.70;99.90;;;;;;6181925;23;20001;-82
2022/09/25 00:50:16;;;;;;;8.73;2.90;;;10.60;99.90;;;;;;6182017;23;19997;-82
2022/09/25 00:52:42;;;;;;;6.82;2.70;;;10.60;99.90;;;;;;6181515;23;20492;-82
2022/09/25 00:55:08;;;;;;;5.80;2.17;;;10.70;99.90;;;;;;6181654;23;20033;-82
2022/09/25 00:57:37;;;;;;;9.48;2.85;;;10.50;99.90;;;;;;6181329;23;20005;-82
2022/09/25 01:00:10;;;;;;;9.75;2.97;;;10.50;99.90;;;;;;6180888;23;20105;-82
2022/09/25 01:02:41;;;;;;;10.68;2.65;;;10.50;99.90;;;;;;6181160;23;20001;-82
2022/09/25 01:05:10;;;;;;;7.85;3.75;;;10.40;99.90;;;;;;6181003;23;20001;-81
2022/09/25 01:07:39;;;;;;;6.85;2.28;;;10.40;99.90;;;;;;6180924;23;20089;-82
2022/09/25 01:10:07;;;;;;;6.70;2.47;;;10.40;99.90;;;;;;6181019;23;20012;-82
2022/09/25 01:12:37;;;;;;;6.88;2.42;;;10.30;99.90;;;;;;6181189;23;19997;-82
2022/09/25 01:15:07;;;;;;;4.18;2.90;;;10.30;99.90;;;;;;6180980;23;20005;-82
2022/09/25 01:17:51;;;;;;;5.57;2.47;;;10.20;99.90;;;;;;6181486;23;20036;-82
2022/09/25 01:20:55;;;;;;;9.68;2.80;;;10.20;99.90;;;;;;6181621;23;20396;-82
2022/09/25 01:23:48;;;;;;;4.97;2.25;;;10.20;99.90;;;;;;6181193;23;19997;-83
2022/09/25 01:26:32;;;;;;;8.88;2.13;;;10.10;99.90;;;;;;6181425;23;20012;-82
2022/09/25 01:29:16;;;;;;;6.75;2.33;;;10.10;99.90;;;;;;6180197;23;20431;-82
2022/09/25 01:32:03;;;;;;;10.30;3.00;;;10.10;99.90;;;;;;6181606;23;20139;-82
2022/09/25 01:34:51;;;;;;;9.07;2.67;;;10.10;99.90;;;;;;6183140;23;20092;-81
2022/09/25 01:37:40;;;;;;;7.10;2.28;;;10.00;99.90;;;;;;6183044;23;20001;-82
2022/09/25 01:40:20;;;;;;;5.80;2.42;;;10.00;99.90;;;;;;6183167;23;20075;-82
2022/09/25 01:42:53;;;;;;;9.03;3.20;;;10.00;99.90;;;;;;6182279;23;20375;-82
2022/09/25 01:45:35;;;;;;;16.05;3.33;;;10.00;99.90;;;;;;6182787;23;20381;-82
2022/09/25 01:48:04;;;;;;;9.13;2.58;;;10.00;99.90;;;;;;6182697;23;19997;-82
2022/09/25 01:50:42;;;;;;;10.55;3.70;;;10.00;99.90;;;;;;6182863;23;20012;-82
2022/09/25 01:53:13;;;;;;;6.05;3.38;;;10.00;99.90;;;;;;6182660;23;20008;-82
2022/09/25 01:55:47;;;;;;;8.18;3.55;;;9.90;99.90;;;;;;6182375;23;20032;-83
2022/09/25 01:58:16;;;;;;;8.07;3.28;;;9.90;99.90;;;;;;6182205;23;20439;-81
2022/09/25 02:00:49;;;;;;;4.47;2.97;;;9.90;99.90;;;;;;6182700;23;20051;-82
2022/09/25 02:03:27;;;;;;;5.07;2.42;;;9.90;99.90;;;;;;6182490;23;20080;-82
2022/09/25 02:05:55;;;;;;;10.30;3.05;;;9.80;99.90;;;;;;6182417;23;20005;-82
2022/09/25 02:08:30;;;;;;;8.55;2.90;;;9.80;99.90;;;;;;6182513;23;20005;-82
2022/09/25 02:11:01;;;;;;;11.30;2.90;;;11.20;99.90;;;;;;6182554;23;20007;-82
2022/09/25 02:13:37;;;;;;;6.55;2.60;;;9.80;99.90;;;;;;6182145;23;20080;-82
2022/09/25 02:16:09;;;;;;;10.82;3.20;;;9.80;99.90;;;;;;6182708;23;20028;-82
2022/09/25 02:21:45;;;;;;;6.65;3.05;;;9.70;99.90;;;;;;6182664;23;20343;-82
2022/09/25 02:24:32;;;;;;;6.05;2.67;;;9.80;99.90;;;;;;6181229;23;20326;-82
2022/09/25 02:26:57;;;;;;;12.88;3.30;;;9.80;99.90;;;;;;6179186;23;20009;-82
2022/09/25 02:29:23;;;;;;;9.10;3.28;;;9.80;99.90;;;;;;6179860;23;20021;-82
2022/09/25 02:32:06;;;;;;;8.77;2.55;;;9.80;99.90;;;;;;6179863;23;20017;-82
2022/09/25 02:34:32;;;;;;;9.95;2.67;;;9.70;99.90;;;;;;6179470;23;20036;-81
2022/09/25 02:36:58;;;;;;;4.30;2.70;;;9.80;99.90;;;;;;6179330;23;20364;-82
2022/09/25 02:39:27;;;;;;;5.50;3.10;;;9.60;99.90;;;;;;6179723;23;20076;-82
2022/09/25 02:41:52;;;;;;;3.60;2.45;;;9.70;99.90;;;;;;6180612;23;20013;-82
2022/09/25 02:44:44;;;;;;;3.45;2.67;;;9.60;99.90;;;;;;6182204;23;19997;-82
2022/09/25 02:47:20;;;;;;;9.82;3.35;;;9.60;99.90;;;;;;6182047;23;20001;-82
2022/09/25 02:50:14;;;;;;;8.15;3.25;;;9.60;99.90;;;;;;6181785;23;20119;-82
2022/09/25 02:52:51;;;;;;;;;;;9.50;99.90;;;;;;6182623;23;20112;-82
2022/09/25 02:55:42;;;;;;;10.30;3.50;;;9.50;99.90;;;;;;6182363;23;19904;-82
2022/09/25 02:58:17;;;;;;;10.35;2.60;;;9.40;99.90;;;;;;6176726;23;20005;-82
2022/09/25 03:00:45;;;;;;;5.32;2.58;;;9.50;99.90;;;;;;6183629;23;20005;-82
2022/09/25 03:03:14;;;;;;;4.40;2.70;;;9.40;99.90;;;;;;6183245;23;20028;-81
2022/09/25 03:05:40;;;;;;;7.60;2.58;;;9.40;99.90;;;;;;6182062;23;20009;-82
2022/09/25 03:10:50;;;;;;;5.13;3.17;;;9.20;99.90;;;;;;6181189;23;20020;-82
2022/09/25 03:13:22;;;;;;;9.87;3.40;;;9.30;99.90;;;;;;6181878;23;19997;-82
2022/09/25 03:15:54;;;;;;;4.17;2.70;;;9.30;99.90;;;;;;6181683;23;20079;-82
2022/09/25 03:18:20;;;;;;;4.20;2.90;;;9.20;99.90;;;;;;6181625;23;20012;-82
2022/09/25 03:20:46;;;;;;;7.38;3.03;;;9.20;99.90;;;;;;6179895;23;20316;-82
2022/09/25 03:23:12;;;;;;;6.67;3.10;;;9.20;99.90;;;;;;6181716;23;20011;-81
2022/09/25 03:25:38;;;;;;;5.13;2.85;;;9.10;99.90;;;;;;6181016;23;20011;-82
2022/09/25 03:28:09;;;;;;;8.25;2.90;;;9.10;99.90;;;;;;6181139;23;20080;-81
2022/09/25 03:30:37;;;;;;;7.50;3.13;;;9.00;99.90;;;;;;6181862;23;20005;-82
2022/09/25 03:33:03;;;;;;;6.40;3.17;;;9.00;99.90;;;;;;6181844;23;20032;-82
2022/09/25 03:35:28;;;;;;;9.15;2.85;;;9.00;99.90;;;;;;6181975;23;20005;-82
2022/09/25 03:37:54;;;;;;;8.50;3.17;;;8.90;99.90;;;;;;6181222;23;20155;-82
2022/09/25 03:40:20;;;;;;;5.32;2.70;;;8.90;99.90;;;;;;6180921;23;20062;-82
2022/09/25 03:42:46;;;;;;;5.13;3.50;;;8.80;99.90;;;;;;6180716;23;19997;-82
2022/09/25 03:45:11;;;;;;;7.73;3.47;;;8.90;99.90;;;;;;6181507;23;20015;-82
2022/09/25 03:47:37;;;;;;;12.00;3.40;;;8.80;99.90;;;;;;6181763;23;20079;-81
2022/09/25 03:50:03;;;;;;;12.83;3.93;;;8.90;99.90;;;;;;6181570;23;20001;-82
2022/09/25 03:52:28;;;;;;;4.72;3.03;;;9.00;99.90;;;;;;6181851;23;20007;-82
2022/09/25 03:54:54;;;;;;;9.80;3.73;;;8.90;99.90;;;;;;6180525;23;20001;-82
2022/09/25 03:57:19;;;;;;;6.50;3.47;;;8.90;99.90;;;;;;6181749;23;20087;-82
2022/09/25 03:59:45;;;;;;;7.10;4.23;;;8.90;99.90;;;;;;6181059;23;20008;-82
2022/09/25 04:02:11;;;;;;;6.97;3.63;;;8.80;99.90;;;;;;6181107;23;19997;-82
2022/09/25 04:04:37;;;;;;;10.13;3.47;;;8.70;99.90;;;;;;6181302;23;20024;-82
2022/09/25 04:07:02;;;;;;;7.03;3.23;;;8.70;99.90;;;;;;6180467;23;20001;-82
2022/09/25 04:09:28;;;;;;;7.77;3.23;;;8.70;99.90;;;;;;6180709;23;20659;-83
2022/09/25 04:11:54;;;;;;;7.53;2.50;;;8.60;99.90;;;;;;6179337;23;20024;-82
2022/09/25 04:14:20;;;;;;;4.43;3.23;;;8.60;99.90;;;;;;6181575;23;20076;-82
2022/09/25 04:16:46;;;;;;;5.30;3.30;;;8.50;99.90;;;;;;6181073;23;20044;-82
2022/09/25 04:19:11;;;;;;;7.93;3.63;;;8.50;99.90;;;;;;6180915;23;20036;-82
2022/09/25 04:21:37;;;;;;;8.73;3.55;;;8.40;99.90;;;;;;6181504;23;20005;-83
2022/09/25 04:26:50;;;;;;;8.73;4.05;;;8.30;99.90;;;;;;6180899;23;20093;-82
2022/09/25 04:29:16;;;;;;;4.23;2.93;;;8.30;99.90;;;;;;6179557;23;20045;-82
2022/09/25 04:31:42;;;;;;;8.30;3.27;;;8.30;99.90;;;;;;6180971;23;20005;-83
2022/09/25 04:34:08;;;;;;;6.13;3.77;;;8.30;99.90;;;;;;6181418;23;20566;-82
2022/09/25 04:36:34;;;;;;;6.23;3.67;;;8.20;99.90;;;;;;6181828;23;20427;-82
2022/09/25 04:38:59;;;;;;;3.97;3.53;;;8.20;99.90;;;;;;6180846;23;20002;-83
2022/09/25 04:41:25;;;;;;;6.17;3.13;;;8.10;99.90;;;;;;6181516;23;20059;-82
2022/09/25 04:43:50;;;;;;;7.07;3.50;;;8.10;99.90;;;;;;6181087;23;20072;-82
2022/09/25 04:46:16;;;;;;;6.37;3.47;;;8.10;99.90;;;;;;6181270;23;20083;-82
2022/09/25 04:48:45;;;;;;;4.73;3.63;;;8.00;99.90;;;;;;6181256;23;20075;-82
2022/09/25 04:51:11;;;;;;;7.67;3.90;;;8.00;99.90;;;;;;6181691;23;20018;-82
2022/09/25 04:53:37;;;;;;;6.07;3.57;;;8.00;99.90;;;;;;6181207;23;20006;-82
2022/09/25 04:56:06;;;;;;;5.67;3.40;;;8.00;99.90;;;;;;6181624;23;20321;-82
2022/09/25 04:58:32;;;;;;;4.83;3.30;;;8.00;99.90;;;;;;6181472;23;20147;-82
2022/09/25 05:01:03;;;;;;;5.80;3.60;;;8.00;99.90;;;;;;6180853;23;20109;-82
2022/09/25 05:03:29;;;;;;;6.03;4.07;;;8.00;99.90;;;;;;6181178;23;20008;-82
2022/09/25 05:05:54;;;;;;;5.77;3.40;;;7.90;99.90;;;;;;6181419;23;20009;-82
2022/09/25 05:08:22;;;;;;;9.57;3.33;;;7.90;99.90;;;;;;6183443;23;20016;-82
2022/09/25 05:10:47;;;;;;;6.97;3.67;;;7.90;99.90;;;;;;6182923;23;20068;-82
2022/09/25 05:13:13;;;;;;;5.90;3.47;;;7.90;99.90;;;;;;6183279;23;20005;-82
2022/09/25 05:15:38;;;;;;;7.07;3.10;;;7.90;99.90;;;;;;6183900;23;20064;-82
2022/09/25 05:18:16;;;;;;;7.97;3.50;;;7.80;99.90;;;;;;6183399;23;20418;-82
2022/09/25 05:20:42;;;;;;;6.73;3.30;;;7.90;99.90;;;;;;6182542;23;20055;-82
2022/09/25 05:23:08;;;;;;;4.57;3.33;;;7.80;99.90;;;;;;6182996;23;20009;-82
2022/09/25 05:25:33;;;;;;;7.10;3.97;;;7.80;99.90;;;;;;6183258;23;20086;-82
2022/09/25 05:28:00;;;;;;;6.40;3.90;;;7.80;99.90;;;;;;6182725;23;20423;-82
2022/09/25 05:30:28;;;;;;;6.93;4.50;;;7.80;99.90;;;;;;6181197;23;20063;-82
2022/09/25 05:32:57;;;;;;;4.07;3.57;;;7.80;99.90;;;;;;6182790;23;19997;-82
2022/09/25 05:35:23;;;;;;;6.07;4.20;;;7.80;99.90;;;;;;6182505;23;20005;-82
2022/09/25 05:37:49;;;;;;;7.63;3.90;;;7.80;99.90;;;;;;6182566;23;20447;-82
2022/09/25 05:40:16;;;;;;;6.77;4.00;;;7.80;99.90;;;;;;6183062;23;20009;-82
2022/09/25 05:42:43;;;;;;;8.20;4.40;;;7.70;99.90;;;;;;6182525;23;20009;-82
2022/09/25 05:45:10;;;;;;;7.07;4.23;;;7.70;99.90;;;;;;6182874;23;20380;-82
2022/09/25 05:47:36;;;;;;;8.30;4.20;;;7.80;99.90;;;;;;6182588;23;20010;-81
2022/09/25 05:50:03;;;;;;;10.50;5.40;;;7.80;99.90;;;;;;6182038;23;20028;-82
2022/09/25 05:52:29;;;;;;;7.43;4.50;;;7.80;99.90;;;;;;6182916;23;20072;-82
2022/09/25 05:54:55;;;;;;;5.63;4.43;;;7.90;99.90;;;;;;6182524;23;20047;-82
2022/09/25 05:57:21;;;;;;;7.60;4.47;;;7.80;99.90;;;;;;6182921;23;20055;-82
2022/09/25 05:59:48;;;;;;;7.67;3.83;;;7.80;99.90;;;;;;6180630;23;20096;-82
2022/09/25 06:02:15;;;;;;;9.30;4.63;;;7.90;99.90;;;;;;6182367;23;20029;-82
2022/09/25 06:04:40;;;;;;;7.27;4.50;;;7.80;99.90;;;;;;6180127;23;20001;-82
2022/09/25 06:07:06;;;;;;;4.70;3.60;;;7.90;99.90;;;;;;6181821;23;20012;-82
2022/09/25 06:09:31;;;;;;;8.60;3.90;;;8.50;99.90;;;;;;6182649;23;20005;-82
2022/09/25 06:11:57;;;;;;;6.57;3.80;;;7.90;99.90;;;;;;6183659;23;20391;-82
2022/09/25 06:14:23;;;;;;;6.20;3.87;;;;;;;;;;6184253;23;20028;-82
2022/09/25 06:16:49;;;;;;;3.87;3.47;;;7.90;99.90;;;;;;6181361;23;20017;-82
2022/09/25 06:19:16;;;;;;;5.97;4.40;;;7.90;99.90;;;;;;6182161;23;20335;-82
2022/09/25 06:21:42;;;;;;;4.30;3.37;;;7.90;99.90;;;;;;6182247;23;20086;-83
2022/09/25 06:24:09;;;;;;;5.27;4.00;;;7.90;99.90;;;;;;6182621;23;20001;-83
2022/09/25 06:26:35;;;;;;;6.77;4.57;;;7.90;99.90;;;;;;6182199;23;20063;-83
2022/09/25 06:29:02;;;;;;;9.83;5.27;;;8.00;99.90;;;;;;6182006;23;20024;-83
2022/09/25 06:31:28;;;;;;;9.90;5.67;;;8.00;99.90;;;;;;6182592;23;20005;-82
2022/09/25 06:33:53;;;;;;;8.83;4.30;;;8.00;99.90;;;;;;6181860;23;20001;-83
2022/09/25 06:36:19;;;;;;;5.97;4.70;;;8.10;99.90;;;;;;6182075;23;20005;-83
2022/09/25 06:38:44;;;;;;;9.50;4.73;;;8.70;99.90;;;;;;6182462;23;20005;-83
2022/09/25 06:41:11;;;;;;;6.07;4.17;;;8.10;99.90;;;;;;6182153;23;20009;-83
2022/09/25 06:43:36;;;;;;;7.03;4.23;;;8.30;99.90;;;;;;6182374;23;20001;-83
2022/09/25 06:46:02;;;;;;;5.93;4.20;;;8.40;99.90;;;;;;6182188;23;20008;-83
2022/09/25 06:48:29;;;;;;;9.07;4.10;;;8.40;99.90;;;;;;6181622;23;20012;-83
2022/09/25 06:50:57;;;;;;;6.07;3.77;;;8.50;99.90;;;;;;6182421;23;20120;-84
2022/09/25 06:53:24;;;;;;;9.17;4.30;;;8.60;99.90;;;;;;6182534;23;20327;-83
2022/09/25 06:55:50;;;;;;;9.43;4.10;;;8.70;99.90;;;;;;6181992;23;20009;-84
2022/09/25 06:58:21;;;;;;;8.40;4.77;;;8.90;99.90;;;;;;6182283;23;20012;-84
2022/09/25 07:00:52;;;;;;;7.50;4.40;;;8.90;99.90;;;;;;6182033;23;20450;-84
2022/09/25 07:06:04;;;;;;;9.73;4.67;;;9.10;99.90;;;;;;6182056;23;20036;-83
2022/09/25 07:08:30;;;;;;;7.63;3.67;;;9.30;99.90;;;;;;6183103;23;20001;-83
2022/09/25 07:10:57;;;;;;;5.37;3.97;;;9.30;99.90;;;;;;6184548;23;20024;-84
2022/09/25 07:13:27;;;;;;;7.27;3.73;;;9.40;99.90;;;;;;6182235;23;20008;-84
2022/09/25 07:15:55;;;;;;;9.87;3.90;;;9.50;99.90;;;;;;6181684;23;20075;-83
2022/09/25 07:18:21;;;;;;;6.27;3.43;;;9.50;99.90;;;;;;6181782;23;20047;-84
2022/09/25 07:20:48;;;;;;;4.13;3.63;;;9.60;99.90;;;;;;6181508;23;20451;-84
2022/09/25 07:23:15;;;;;;;7.20;3.60;;;9.80;99.90;;;;;;6181943;23;20005;-84
2022/09/25 07:25:42;;;;;;;8.03;3.87;;;9.90;99.90;;;;;;6181565;23;20005;-83
2022/09/25 07:28:08;;;;;;;10.63;3.73;;;9.90;99.90;;;;;;6181376;23;20005;-83
2022/09/25 07:30:34;;;;;;;7.07;2.70;;;10.10;99.90;;;;;;6181557;23;20334;-83
2022/09/25 07:33:00;;;;;;;6.93;3.00;;;10.10;99.90;;;;;;6181118;23;19997;-83
2022/09/25 07:35:26;;;;;;;12.20;3.20;;;10.20;99.90;;;;;;6182340;23;20005;-83
2022/09/25 07:37:55;;;;;;;7.57;3.27;;;10.30;99.90;;;;;;6181695;23;20097;-81
2022/09/25 07:40:21;;;;;;;4.97;2.92;;;10.40;99.90;;;;;;6181978;23;20011;-80
2022/09/25 07:42:46;;;;;;;9.23;3.97;;;10.20;99.90;;;;;;6181266;23;20390;-79
2022/09/25 07:45:12;;;;;;;8.40;3.27;;;10.50;99.90;;;;;;6182173;23;20009;-80
2022/09/25 07:47:37;;;;;;;6.65;2.65;;;10.60;99.90;;;;;;6181609;23;20428;-79
2022/09/25 07:50:03;;;;;;;9.38;3.40;;;10.60;99.90;;;;;;6181651;23;20023;-78
2022/09/25 07:52:29;;;;;;;6.80;3.28;;;10.70;99.90;;;;;;6181767;23;20001;-79
2022/09/25 07:54:54;;;;;;;3.22;2.38;;;10.90;99.90;;;;;;6181242;23;20005;-78
2022/09/25 07:57:20;;;;;;;3.88;2.33;;;12.90;99.90;;;;;;6181760;23;20036;-79
2022/09/25 07:59:46;;;;;;;7.93;2.00;;;10.80;99.90;;;;;;6181048;23;20001;-79
2022/09/25 08:02:12;;;;;;;6.45;3.50;;;10.90;99.90;;;;;;6180900;23;20008;-78
2022/09/25 08:04:37;;;;;;;8.95;3.08;;;11.00;99.90;;;;;;6181254;23;19997;-78
2022/09/25 08:07:03;;;;;;;5.93;2.22;;;11.20;99.90;;;;;;6181275;23;20052;-78
2022/09/25 08:09:29;;;;;;;5.88;2.53;;;11.20;99.90;;;;;;6181401;23;20001;-79
2022/09/25 08:11:54;;;;;;;14.27;2.28;;;11.30;99.90;;;;;;6181137;23;20249;-78
2022/09/25 08:14:21;;;;;;;8.00;1.65;;;11.40;99.90;;;;;;6180914;23;19997;-78
2022/09/25 08:16:53;;;;;;;7.72;2.17;;;11.50;99.90;;;;;;6181311;23;20009;-79
2022/09/25 08:19:21;;;;;;;9.15;1.65;;;11.60;99.90;;;;;;6181697;23;20012;-79
2022/09/25 08:21:47;;;;;;;4.43;1.48;;;11.80;99.90;;;;;;6181193;23;20071;-78
2022/09/25 08:24:12;;;;;;;6.28;2.33;;;11.70;99.90;;;;;;6181407;23;20434;-78
2022/09/25 08:26:38;;;;;;;7.10;1.33;;;11.90;99.90;;;;;;6180843;23;20051;-78
2022/09/25 08:29:03;;;;;;;3.80;1.40;;;12.00;99.90;;;;;;6180416;23;20033;-78
2022/09/25 08:31:29;;;;;;;5.75;1.50;;;13.00;99.90;;;;;;6181330;23;20028;-78
2022/09/25 08:33:54;;;;;;;6.95;1.20;;;12.00;99.90;;;;;;6181144;23;19997;-79
2022/09/25 08:36:20;;;;;;;4.93;1.05;;;12.10;99.90;;;;;;6179537;23;20031;-78
2022/09/25 08:38:47;;;;;;;8.07;1.33;;;12.30;99.90;;;;;;6180656;23;20052;-78
2022/09/25 08:41:30;;;;;;;5.70;1.60;;;12.30;99.90;;;;;;6182196;23;20084;-79
2022/09/25 08:44:14;;;;;;;5.95;1.23;;;12.40;99.90;;;;;;6182559;23;20080;-80
2022/09/25 08:49:35;;;;;;;4.15;0.93;;;12.60;99.90;;;;;;6183437;23;20016;-80
2022/09/25 08:52:05;;;;;;;5.93;1.20;;;12.60;99.90;;;;;;6182685;23;20008;-79
2022/09/25 08:54:33;;;;;;;9.77;1.60;;;12.70;99.90;;;;;;6182326;23;20001;-79
2022/09/25 08:57:36;;;;;;;4.25;1.17;;;12.70;99.90;;;;;;6182505;23;20001;-78
2022/09/25 09:00:13;;;;;;;2.70;0.80;;;12.80;99.90;;;;;;6182541;23;20033;-79
2022/09/25 09:02:45;;;;;;;5.30;0.93;;;12.90;99.90;;;;;;6182099;23;20442;-78
2022/09/25 09:05:36;;;;;;;6.18;0.82;;;11.50;99.90;;;;;;6182484;23;20359;-79
2022/09/25 09:08:08;;;;;;;5.25;1.02;;;13.00;99.90;;;;;;6163143;23;20012;-79
2022/09/25 09:10:40;;;;;;;3.45;0.80;;;13.00;99.90;;;;;;6182717;23;20032;-83
2022/09/25 09:13:21;;;;;;;3.53;0.75;;;13.10;99.90;;;;;;6181130;23;19997;-79
2022/09/25 09:16:04;;;;;;;5.90;1.00;;;13.10;99.90;;;;;;6181747;23;20051;-79
2022/09/25 09:18:40;;;;;;;9.85;1.00;;;13.10;99.90;;;;;;6182679;23;20662;-79
2022/09/25 09:21:15;;;;;;;9.95;0.80;;;13.20;99.90;;;;;;6182985;23;20005;-79
2022/09/25 09:24:14;;;;;;;4.13;1.05;;;13.20;99.90;;;;;;6182718;23;20128;-79
2022/09/25 09:27:08;;;;;;;4.93;1.05;;;13.20;99.90;;;;;;6182347;23;20005;-79
2022/09/25 09:29:59;;;;;;;5.88;0.93;;;13.30;99.90;;;;;;6180936;23;20367;-79
2022/09/25 09:32:55;;;;;;;1.63;0.60;;;14.50;99.90;;;;;;6183020;23;20124;-78
2022/09/25 09:35:26;;;;;;;5.32;1.55;;;13.50;99.90;;;;;;6182689;23;20063;-79
2022/09/25 09:38:03;;;;;;;3.28;1.00;;;13.50;99.90;;;;;;6182350;23;20196;-80
2022/09/25 09:41:02;;;;;;;4.63;1.08;;;13.70;99.90;;;;;;6182796;23;20104;-78
2022/09/25 09:43:39;;;;;;;3.80;0.57;;;13.70;99.90;;;;;;6182488;23;20032;-78
2022/09/25 09:46:27;;;;;;;5.28;1.17;;;13.60;99.90;;;;;;6182571;23;20068;-78
2022/09/25 09:49:09;;;;;;;6.38;0.85;;;13.80;99.90;;;;;;6182427;23;20005;-78
2022/09/25 09:51:38;;;;;;;4.55;1.58;;;13.80;99.90;;;;;;6182454;23;19997;-78
2022/09/25 09:54:12;;;;;;;3.38;0.95;;;13.90;99.90;;;;;;6182574;23;20008;-78
2022/09/25 09:56:41;;;;;;;5.50;1.20;;;13.90;99.90;;;;;;6182015;23;20013;-78
2022/09/25 09:59:22;;;;;;;3.30;0.82;;;13.90;99.90;;;;;;6182735;23;20005;-77
2022/09/25 10:02:22;;;;;;;5.55;0.70;;;14.50;99.90;;;;;;6180655;23;20009;-78
2022/09/25 10:04:49;;;;;;;3.83;0.80;;;14.10;99.90;;;;;;6156165;23;20005;-77
2022/09/25 10:07:18;;;;;;;4.43;0.77;;;14.30;99.90;;;;;;6182618;23;20335;-78
2022/09/25 10:09:45;;;;;;;2.65;0.75;;;14.40;99.90;;;;;;6180568;23;20084;-78
2022/09/25 10:12:29;;;;;;;2.17;0.85;;;14.50;99.90;;;;;;6181734;23;19998;-78
2022/09/25 10:14:56;;;;;;;7.97;0.83;;;14.50;99.90;;;;;;6182329;23;20068;-77
2022/09/25 10:17:22;;;;;;;1.95;0.55;;;14.50;99.90;;;;;;6182252;23;20075;-77
2022/09/25 10:19:56;;;;;;;4.13;0.88;;;14.60;99.90;;;;;;6181909;23;20419;-77
2022/09/25 10:22:27;;;;;;;6.93;0.73;;;14.60;99.90;;;;;;6182420;23;20092;-78
2022/09/25 10:25:01;;;;;;;5.40;0.80;;;14.80;99.90;;;;;;6181609;23;20001;-78
2022/09/25 10:27:35;;;;;;;3.17;0.70;;;15.00;99.90;;;;;;6182386;23;20374;-78
2022/09/25 10:30:04;;;;;;;2.85;0.70;;;15.00;99.90;;;;;;6182033;23;20320;-78
2022/09/25 10:32:31;;;;;;;5.05;1.15;;;15.10;99.90;;;;;;6182369;23;20008;-78
2022/09/25 10:34:57;;;;;;;2.83;0.77;;;15.20;99.90;;;;;;6181868;23;20017;-77
2022/09/25 10:37:33;;;;;;;2.40;0.70;;;15.30;99.90;;;;;;6181832;23;20084;-77
2022/09/25 10:40:21;;;;;;;3.25;0.60;;;15.30;99.90;;;;;;6181216;23;20017;-78
2022/09/25 10:42:47;;;;;;;3.70;0.75;;;15.20;99.90;;;;;;6181796;23;20111;-78
2022/09/25 10:45:21;;;;;;;6.60;0.75;;;15.20;99.90;;;;;;6181802;23;20001;-77
2022/09/25 10:50:35;;;;;;;1.30;0.40;;;15.20;99.90;;;;;;6181663;23;20470;-77
2022/09/25 10:53:03;;;;;;;4.25;0.55;;;15.20;99.90;;;;;;6181668;23;19997;-78
2022/09/25 10:55:37;;;;;;;2.67;0.80;;;16.00;99.90;;;;;;6181329;23;20008;-77
2022/09/25 10:58:09;;;;;;;5.40;0.60;;;15.20;99.90;;;;;;6181723;23;20036;-77
2022/09/25 11:00:52;;;;;;;4.00;0.60;;;15.20;99.90;;;;;;6182306;23;20027;-77
2022/09/25 11:03:22;;;;;;;4.47;0.82;;;15.20;99.90;;;;;;6181976;23;20005;-77
2022/09/25 11:06:09;;;;;;;2.92;1.13;;;15.20;99.90;;;;;;6181569;23;20500;-77
2022/09/25 11:08:40;;;;;;;1.98;0.50;;;15.30;99.90;;;;;;6181579;23;20055;-76
2022/09/25 11:11:08;;;;;;;3.80;0.88;;;15.40;99.90;;;;;;6180564;23;20342;-77
2022/09/25 11:13:53;;;;;;;1.80;0.40;;;15.30;99.90;;;;;;6180167;23;20089;-77
2022/09/25 11:16:19;;;;;;;3.72;0.60;;;15.40;99.90;;;;;;6180852;23;20005;-77
2022/09/25 11:18:49;;;;;;;7.35;1.52;;;15.50;99.90;;;;;;6180652;23;20005;-77
2022/09/25 11:21:35;;;;;;;1.30;0.65;;;15.50;99.90;;;;;;6181787;23;20334;-77
2022/09/25 11:24:03;;;;;;;0.80;0.57;;;15.60;99.90;;;;;;6181160;23;20434;-77
2022/09/25 11:26:38;;;;;;;1.73;0.82;;;15.50;99.90;;;;;;6181604;23;20012;-77
2022/09/25 11:29:13;;;;;;;2.20;0.93;;;15.70;99.90;;;;;;6181705;23;20025;-77
2022/09/25 11:31:56;;;;;;;3.13;0.90;;;15.70;99.90;;;;;;6181905;23;20005;-77
2022/09/25 11:34:41;;;;;;;2.47;0.90;;;15.90;99.90;;;;;;6180315;23;20419;-77
2022/09/25 11:37:30;;;;;;;1.42;0.70;;;16.10;99.90;;;;;;6181776;23;20011;-78
2022/09/25 11:43:06;;;;;;;2.55;0.55;;;16.30;99.90;;;;;;6181851;23;20335;-77
2022/09/25 11:45:40;;;;;;;1.92;0.50;;;16.20;99.90;;;;;;6182107;23;20005;-78
2022/09/25 11:48:22;;;;;;;3.33;0.65;;;16.20;99.90;;;;;;6181934;23;20483;-77
2022/09/25 11:51:04;;;;;;;2.15;0.70;;;16.20;99.90;;;;;;6181563;23;20008;-77
2022/09/25 11:53:36;;;;;;;1.13;0.60;;;16.30;99.90;;;;;;6181465;23;20008;-77
2022/09/25 11:56:21;;;;;;;2.78;0.60;;;16.20;98.20;;;;;;6180153;23;20008;-77
2022/09/25 11:59:31;;;;;;;0.75;0.43;;;16.10;98.00;;;;;;6180943;23;20373;-77
2022/09/25 12:02:25;;;;;;;1.90;0.30;;;16.10;97.90;;;;;;6179531;23;20566;-77
2022/09/25 12:05:00;;;;;;;;;;;16.00;97.80;;;;;;6138321;23;20323;-77
2022/09/25 12:07:32;;;;;;;;;;;16.00;98.10;;;;;;6181061;23;20683;-76
2022/09/25 12:10:18;;;;;;;2.03;0.40;;;15.90;98.40;;;;;;6181147;23;19907;-77
2022/09/25 12:13:12;;;;;;;1.88;0.38;;;15.70;99.70;;;;;;6181121;23;20387;-77
2022/09/25 12:15:56;;;;;;;3.17;0.85;;;15.80;99.30;;;;;;6180882;23;20009;-77
2022/09/25 12:18:34;;;;;;;0.85;0.30;;;15.60;99.80;;;;;;6181582;23;20021;-77
2022/09/25 12:21:05;;;;;;;0.90;0.50;;;15.40;99.50;;;;;;6179091;23;20012;-78
2022/09/25 12:23:56;;;;;;;0.57;0.40;;;15.30;99.90;;;;;;6182022;23;20051;-76
2022/09/25 12:26:58;;;;;;;1.27;0.43;;;16.60;99.90;;;;;;6181145;23;20009;-76
2022/09/25 12:29:52;;;;;;;1.50;0.77;;;15.00;99.90;;;;;;6181063;23;20028;-75
2022/09/25 12:32:48;;;;;;;1.42;0.50;;;14.90;99.90;;;;;;6179715;23;20095;-75
2022/09/25 12:35:31;;;;;;;5.10;0.50;;;14.80;99.90;;;;;;6181248;23;20001;-75
2022/09/25 12:38:04;;;;;;;1.55;0.60;;;14.70;99.90;;;;;;6181412;23;20012;-76
2022/09/25 12:40:44;;;;;;;3.87;1.10;;;14.70;99.90;;;;;;6181300;23;20009;-75
2022/09/25 12:43:22;;;;;;;2.80;0.70;;;14.70;99.90;;;;;;6181231;23;20076;-75
2022/09/25 12:46:08;;;;;;;3.97;0.50;;;14.80;99.90;;;;;;6181040;23;20382;-75
2022/09/25 12:48:42;;;;;;;2.05;0.65;;;15.40;99.90;;;;;;6179553;23;19998;-75
2022/09/25 12:51:28;;;;;;;3.15;0.60;;;15.00;99.90;;;;;;6180376;23;20090;-75
2022/09/25 12:54:00;;;;;;;3.55;0.45;;;15.30;99.90;;;;;;6179045;23;20001;-75
2022/09/25 12:56:36;;;;;;;1.55;0.40;;;15.40;99.90;;;;;;6180234;23;20120;-75
2022/09/25 12:59:04;;;;;;;1.55;0.60;;;15.50;99.90;;;;;;6180147;23;20005;-75
2022/09/25 13:01:41;;;;;;;3.63;0.82;;;15.50;99.90;;;;;;6180874;23;20008;-75
2022/09/25 13:04:33;;;;;;;0.50;0.47;;;15.40;99.90;;;;;;6179114;23;20001;-75
2022/09/25 13:07:25;;;;;;;3.10;0.88;;;15.40;99.90;;;;;;6181220;23;20084;-75
2022/09/25 13:09:50;;;;;;;4.70;0.60;;;15.30;99.90;;;;;;6180781;23;20001;-75
2022/09/25 13:12:23;;;;;;;1.08;0.50;;;15.30;99.90;;;;;;6181147;23;20023;-75
2022/09/25 13:15:00;;;;;;;1.67;0.33;;;15.20;99.90;;;;;;6180577;23;20007;-75
2022/09/25 13:17:25;;;;;;;2.70;0.50;;;15.10;99.90;;;;;;6181177;23;20382;-75
2022/09/25 13:19:51;;;;;;;4.40;1.00;;;14.60;99.90;;;;;;6180162;23;20005;-76
2022/09/25 13:22:23;;;;;;;3.88;1.23;;;15.00;99.90;;;;;;6181173;23;20068;-75
2022/09/25 13:25:05;;;;;;;1.58;0.60;;;15.00;99.90;;;;;;6180692;23;20005;-75
2022/09/25 13:27:41;;;;;;;3.72;0.88;;;15.00;99.90;;;;;;6181917;23;20087;-75
2022/09/25 13:30:19;;;;;;;4.43;2.17;;;16.30;99.90;;;;;;6180965;23;20048;-75
2022/09/25 13:32:49;;;;;;;5.22;2.42;;;15.40;99.90;;;;;;6182437;23;20005;-75
2022/09/25 13:35:17;;;;;;;5.13;0.82;;;15.60;99.90;;;;;;6180771;23;20315;-75
2022/09/25 13:37:43;;;;;;;4.38;0.90;;;15.70;99.90;;;;;;6182332;23;20031;-75